sensor_id;sensor_type;location;lat;lon;timestamp;pressure;altitude;pressure_sealevel;temperature;humidity
6500;BME280;3283;52.330;9.772;2024-01-16T00:01:14;98836.06;;;-2.09;100.00
6500;BME280;3283;52.330;9.772;2024-01-16T00:03:41;98844.75;;;-1.96;100.00
6500;BME280;3283;52.330;9.772;2024-01-16T00:06:07;98846.53;;;-1.89;100.00
6500;BME280;3283;52.330;9.772;2024-01-16T00:08:33;98854.97;;;-2.05;100.00
6500;BME280;3283;52.330;9.772;2024-01-16T00:11:01;98855.81;;;-2.06;100.00
6500;BME280;3283;52.330;9.772;2024-01-16T00:13:27;98852.31;;;-2.17;100.00
6500;BME280;3283;52.330;9.772;2024-01-16T00:15:52;98860.16;;;-2.02;100.00
6500;BME280;3283;52.330;9.772;2024-01-16T00:18:18;98852.38;;;-2.05;100.00
6500;BME280;3283;52.330;9.772;2024-01-16T00:20:44;98864.31;;;-2.16;100.00
6500;BME280;3283;52.330;9.772;2024-01-16T00:23:09;98871.16;;;-2.22;100.00
6500;BME280;3283;52.330;9.772;2024-01-16T00:25:35;98871.16;;;-2.22;100.00
6500;BME280;3283;52.330;9.772;2024-01-16T00:28:01;98873.72;;;-2.22;100.00
6500;BME280;3283;52.330;9.772;2024-01-16T00:30:27;98876.28;;;-2.25;100.00
6500;BME280;3283;52.330;9.772;2024-01-16T00:32:52;98878.78;;;-2.29;100.00
6500;BME280;3283;52.330;9.772;2024-01-16T00:35:18;98883.31;;;-2.07;100.00
6500;BME280;3283;52.330;9.772;2024-01-16T00:37:43;98889.25;;;-2.12;100.00
6500;BME280;3283;52.330;9.772;2024-01-16T00:40:09;98893.34;;;-2.33;100.00
6500;BME280;3283;52.330;9.772;2024-01-16T00:42:34;98891.66;;;-2.31;100.00
6500;BME280;3283;52.330;9.772;2024-01-16T00:45:00;98886.59;;;-2.22;100.00
6500;BME280;3283;52.330;9.772;2024-01-16T00:47:26;98896.84;;;-2.28;100.00
6500;BME280;3283;52.330;9.772;2024-01-16T00:49:51;98904.44;;;-2.40;100.00
6500;BME280;3283;52.330;9.772;2024-01-16T00:52:18;98902.81;;;-2.32;100.00
6500;BME280;3283;52.330;9.772;2024-01-16T00:54:43;98908.88;;;-2.27;100.00
6500;BME280;3283;52.330;9.772;2024-01-16T00:57:08;98913.16;;;-2.29;100.00
6500;BME280;3283;52.330;9.772;2024-01-16T00:59:34;98918.38;;;-2.23;100.00
6500;BME280;3283;52.330;9.772;2024-01-16T01:01:59;98920.91;;;-2.26;100.00
6500;BME280;3283;52.330;9.772;2024-01-16T01:04:25;98917.53;;;-2.20;100.00
6500;BME280;3283;52.330;9.772;2024-01-16T01:06:50;98931.47;;;-2.01;100.00
6500;BME280;3283;52.330;9.772;2024-01-16T01:09:16;98925.47;;;-1.99;100.00
6500;BME280;3283;52.330;9.772;2024-01-16T01:11:42;98933.09;;;-2.11;100.00
6500;BME280;3283;52.330;9.772;2024-01-16T01:14:07;98942.72;;;-1.95;100.00
6500;BME280;3283;52.330;9.772;2024-01-16T01:16:33;98945.31;;;-1.93;100.00
6500;BME280;3283;52.330;9.772;2024-01-16T01:18:58;98942.66;;;-2.01;100.00
6500;BME280;3283;52.330;9.772;2024-01-16T01:21:24;98946.13;;;-1.97;100.00
6500;BME280;3283;52.330;9.772;2024-01-16T01:23:49;98951.16;;;-2.09;100.00
6500;BME280;3283;52.330;9.772;2024-01-16T01:26:14;98955.47;;;-2.05;100.00
6500;BME280;3283;52.330;9.772;2024-01-16T01:28:40;98954.66;;;-2.03;100.00
6500;BME280;3283;52.330;9.772;2024-01-16T01:31:08;98951.81;;;-2.26;100.00
6500;BME280;3283;52.330;9.772;2024-01-16T01:33:34;98961.31;;;-2.23;100.00
6500;BME280;3283;52.330;9.772;2024-01-16T01:35:59;98963.13;;;-2.14;100.00
6500;BME280;3283;52.330;9.772;2024-01-16T01:38:25;98961.22;;;-2.29;100.00
6500;BME280;3283;52.330;9.772;2024-01-16T01:40:50;98962.09;;;-2.27;100.00
6500;BME280;3283;52.330;9.772;2024-01-16T01:43:25;98960.47;;;-2.22;100.00
6500;BME280;3283;52.330;9.772;2024-01-16T01:46:07;98966.13;;;-2.52;100.00
6500;BME280;3283;52.330;9.772;2024-01-16T01:48:34;98971.91;;;-2.68;100.00
6500;BME280;3283;52.330;9.772;2024-01-16T01:51:00;98969.38;;;-2.64;100.00
6500;BME280;3283;52.330;9.772;2024-01-16T01:53:27;98976.25;;;-2.66;100.00
6500;BME280;3283;52.330;9.772;2024-01-16T01:55:54;98983.94;;;-2.67;100.00
6500;BME280;3283;52.330;9.772;2024-01-16T01:58:20;98985.78;;;-2.56;100.00
6500;BME280;3283;52.330;9.772;2024-01-16T02:00:46;98987.56;;;-2.53;100.00
6500;BME280;3283;52.330;9.772;2024-01-16T02:03:12;98991.88;;;-2.51;100.00
6500;BME280;3283;52.330;9.772;2024-01-16T02:05:38;98991.22;;;-2.33;100.00
6500;BME280;3283;52.330;9.772;2024-01-16T02:08:04;98993.03;;;-2.26;100.00
6500;BME280;3283;52.330;9.772;2024-01-16T02:10:30;98994.84;;;-2.18;100.00
6500;BME280;3283;52.330;9.772;2024-01-16T02:12:56;98987.09;;;-2.22;100.00
6500;BME280;3283;52.330;9.772;2024-01-16T02:15:23;98987.88;;;-2.26;100.00
6500;BME280;3283;52.330;9.772;2024-01-16T02:17:48;98991.22;;;-2.36;100.00
6500;BME280;3283;52.330;9.772;2024-01-16T02:20:14;98989.56;;;-2.31;100.00
6500;BME280;3283;52.330;9.772;2024-01-16T02:22:43;98989.47;;;-2.37;100.00
6500;BME280;3283;52.330;9.772;2024-01-16T02:25:10;99004.84;;;-2.46;100.00
6500;BME280;3283;52.330;9.772;2024-01-16T02:27:35;99002.31;;;-2.40;100.00
6500;BME280;3283;52.330;9.772;2024-01-16T02:30:01;99002.94;;;-2.59;100.00
6500;BME280;3283;52.330;9.772;2024-01-16T02:32:26;99008.13;;;-2.56;100.00
6500;BME280;3283;52.330;9.772;2024-01-16T02:34:53;98997.03;;;-2.52;100.00
6500;BME280;3283;52.330;9.772;2024-01-16T02:37:18;99009.81;;;-2.58;100.00
6500;BME280;3283;52.330;9.772;2024-01-16T02:39:43;99007.16;;;-2.64;100.00
6500;BME280;3283;52.330;9.772;2024-01-16T02:42:11;99008.09;;;-2.59;100.00
6500;BME280;3283;52.330;9.772;2024-01-16T02:44:39;99012.19;;;-2.73;100.00
6500;BME280;3283;52.330;9.772;2024-01-16T02:47:05;99017.47;;;-2.63;100.00
6500;BME280;3283;52.330;9.772;2024-01-16T02:49:32;99012.13;;;-2.77;100.00
6500;BME280;3283;52.330;9.772;2024-01-16T02:51:58;99026.47;;;-2.94;100.00
6500;BME280;3283;52.330;9.772;2024-01-16T02:54:23;99015.41;;;-2.87;100.00
6500;BME280;3283;52.330;9.772;2024-01-16T02:56:49;99018.88;;;-2.85;100.00
6500;BME280;3283;52.330;9.772;2024-01-16T02:59:15;99028.09;;;-2.99;100.00
6500;BME280;3283;52.330;9.772;2024-01-16T03:01:40;99029.75;;;-3.02;100.00
6500;BME280;3283;52.330;9.772;2024-01-16T03:04:06;99021.34;;;-2.91;100.00
6500;BME280;3283;52.330;9.772;2024-01-16T03:06:31;99030.78;;;-2.90;100.00
6500;BME280;3283;52.330;9.772;2024-01-16T03:08:57;99028.31;;;-2.85;100.00
6500;BME280;3283;52.330;9.772;2024-01-16T03:11:22;99035.19;;;-2.83;100.00
6500;BME280;3283;52.330;9.772;2024-01-16T03:13:48;99041.28;;;-2.78;100.00
6500;BME280;3283;52.330;9.772;2024-01-16T03:16:14;99047.91;;;-2.93;100.00
6500;BME280;3283;52.330;9.772;2024-01-16T03:18:41;99044.41;;;-2.98;100.00
6500;BME280;3283;52.330;9.772;2024-01-16T03:21:06;99043.63;;;-2.93;100.00
6500;BME280;3283;52.330;9.772;2024-01-16T03:23:32;99043.53;;;-2.99;100.00
6500;BME280;3283;52.330;9.772;2024-01-16T03:25:58;99049.63;;;-2.92;100.00
6500;BME280;3283;52.330;9.772;2024-01-16T03:28:24;99051.25;;;-2.99;100.00
6500;BME280;3283;52.330;9.772;2024-01-16T03:30:49;99043.28;;;-3.14;100.00
6500;BME280;3283;52.330;9.772;2024-01-16T03:33:14;99058.09;;;-3.01;100.00
6500;BME280;3283;52.330;9.772;2024-01-16T03:35:40;99049.19;;;-3.20;100.00
6500;BME280;3283;52.330;9.772;2024-01-16T03:38:07;99051.00;;;-3.16;100.00
6500;BME280;3283;52.330;9.772;2024-01-16T03:40:32;99063.75;;;-3.22;100.00
6500;BME280;3283;52.330;9.772;2024-01-16T03:43:00;99055.94;;;-3.26;100.00
6500;BME280;3283;52.330;9.772;2024-01-16T03:45:25;99064.50;;;-3.27;100.00
6500;BME280;3283;52.330;9.772;2024-01-16T03:47:51;99067.06;;;-3.27;100.00
6500;BME280;3283;52.330;9.772;2024-01-16T03:50:16;99062.88;;;-3.24;100.00
6500;BME280;3283;52.330;9.772;2024-01-16T03:52:42;99074.28;;;-3.08;100.00
6500;BME280;3283;52.330;9.772;2024-01-16T03:55:07;99075.88;;;-3.15;100.00
6500;BME280;3283;52.330;9.772;2024-01-16T03:57:33;99083.47;;;-3.22;100.00
6500;BME280;3283;52.330;9.772;2024-01-16T03:59:58;99084.34;;;-3.20;100.00
6500;BME280;3283;52.330;9.772;2024-01-16T04:02:23;99086.97;;;-3.17;100.00
6500;BME280;3283;52.330;9.772;2024-01-16T04:04:49;99091.84;;;-3.33;100.00
6500;BME280;3283;52.330;9.772;2024-01-16T04:07:14;99093.03;;;-3.15;100.00
6500;BME280;3283;52.330;9.772;2024-01-16T04:09:39;99094.53;;;-3.26;100.00
6500;BME280;3283;52.330;9.772;2024-01-16T04:12:06;99099.75;;;-3.22;100.00
6500;BME280;3283;52.330;9.772;2024-01-16T04:14:33;99098.88;;;-3.24;100.00
6500;BME280;3283;52.330;9.772;2024-01-16T04:16:58;99105.78;;;-3.20;100.00
6500;BME280;3283;52.330;9.772;2024-01-16T04:19:24;99110.75;;;-3.30;100.00
6500;BME280;3283;52.330;9.772;2024-01-16T04:21:49;99095.47;;;-3.21;100.00
6500;BME280;3283;52.330;9.772;2024-01-16T04:24:14;99097.31;;;-3.14;100.00
6500;BME280;3283;52.330;9.772;2024-01-16T04:26:40;99097.16;;;-3.23;100.00
6500;BME280;3283;52.330;9.772;2024-01-16T04:29:05;99096.47;;;-3.13;100.00
6500;BME280;3283;52.330;9.772;2024-01-16T04:31:33;99102.59;;;-3.07;100.00
6500;BME280;3283;52.330;9.772;2024-01-16T04:34:03;99094.88;;;-3.05;100.00
6500;BME280;3283;52.330;9.772;2024-01-16T04:36:29;99096.72;;;-2.98;100.00
6500;BME280;3283;52.330;9.772;2024-01-16T04:38:54;99103.47;;;-3.06;100.00
6500;BME280;3283;52.330;9.772;2024-01-16T04:41:19;99103.59;;;-2.97;100.00
6500;BME280;3283;52.330;9.772;2024-01-16T04:43:45;99096.84;;;-2.92;100.00
6500;BME280;3283;52.330;9.772;2024-01-16T04:46:10;99096.22;;;-2.77;100.00
6500;BME280;3283;52.330;9.772;2024-01-16T04:48:36;99094.38;;;-2.84;100.00
6500;BME280;3283;52.330;9.772;2024-01-16T04:51:01;99087.41;;;-2.90;100.00
6500;BME280;3283;52.330;9.772;2024-01-16T04:53:27;99095.25;;;-2.84;100.00
6500;BME280;3283;52.330;9.772;2024-01-16T04:55:52;99094.16;;;-2.96;100.00
6500;BME280;3283;52.330;9.772;2024-01-16T04:58:18;99101.16;;;-2.89;100.00
6500;BME280;3283;52.330;9.772;2024-01-16T05:00:43;99096.06;;;-2.88;100.00
6500;BME280;3283;52.330;9.772;2024-01-16T05:03:09;99103.78;;;-2.86;100.00
6500;BME280;3283;52.330;9.772;2024-01-16T05:05:34;99103.03;;;-2.81;100.00
6500;BME280;3283;52.330;9.772;2024-01-16T05:08:03;99098.91;;;-2.69;100.00
6500;BME280;3283;52.330;9.772;2024-01-16T05:10:28;99106.38;;;-2.85;100.00
6500;BME280;3283;52.330;9.772;2024-01-16T05:12:54;99104.75;;;-2.80;100.00
6500;BME280;3283;52.330;9.772;2024-01-16T05:15:19;99102.00;;;-2.90;100.00
6500;BME280;3283;52.330;9.772;2024-01-16T05:17:45;99109.34;;;-3.12;100.00
6500;BME280;3283;52.330;9.772;2024-01-16T05:20:10;99099.19;;;-3.04;100.00
6500;BME280;3283;52.330;9.772;2024-01-16T05:22:36;99100.22;;;-2.94;100.00
6500;BME280;3283;52.330;9.772;2024-01-16T05:25:03;99111.53;;;-2.85;100.00
6500;BME280;3283;52.330;9.772;2024-01-16T05:27:29;99109.56;;;-3.01;100.00
6500;BME280;3283;52.330;9.772;2024-01-16T05:29:54;99105.31;;;-2.97;100.00
6500;BME280;3283;52.330;9.772;2024-01-16T05:32:20;99109.50;;;-3.04;100.00
6500;BME280;3283;52.330;9.772;2024-01-16T05:34:45;99103.69;;;-2.92;100.00
6500;BME280;3283;52.330;9.772;2024-01-16T05:37:11;99108.66;;;-3.03;100.00
6500;BME280;3283;52.330;9.772;2024-01-16T05:39:37;99106.25;;;-2.94;100.00
6500;BME280;3283;52.330;9.772;2024-01-16T05:42:02;99117.63;;;-2.80;100.00
6500;BME280;3283;52.330;9.772;2024-01-16T05:44:29;99109.78;;;-2.87;100.00
6500;BME280;3283;52.330;9.772;2024-01-16T05:46:54;99114.06;;;-2.88;100.00
6500;BME280;3283;52.330;9.772;2024-01-16T05:49:20;99120.63;;;-3.05;100.00
6500;BME280;3283;52.330;9.772;2024-01-16T05:51:45;99112.38;;;-2.86;100.00
6500;BME280;3283;52.330;9.772;2024-01-16T05:54:11;99115.84;;;-2.82;100.00
6500;BME280;3283;52.330;9.772;2024-01-16T05:56:36;99108.06;;;-2.87;100.00
6500;BME280;3283;52.330;9.772;2024-01-16T05:59:02;99120.25;;;-2.77;100.00
6500;BME280;3283;52.330;9.772;2024-01-16T06:01:27;99115.91;;;-2.81;100.00
6500;BME280;3283;52.330;9.772;2024-01-16T06:03:52;99131.13;;;-2.93;100.00
6500;BME280;3283;52.330;9.772;2024-01-16T06:06:18;99129.69;;;-2.76;100.00
6500;BME280;3283;52.330;9.772;2024-01-16T06:08:44;99119.66;;;-2.60;100.00
6500;BME280;3283;52.330;9.772;2024-01-16T06:11:10;99123.16;;;-2.55;100.00
6500;BME280;3283;52.330;9.772;2024-01-16T06:13:36;99128.41;;;-2.49;100.00
6500;BME280;3283;52.330;9.772;2024-01-16T06:16:02;99126.84;;;-2.39;100.00
6500;BME280;3283;52.330;9.772;2024-01-16T06:18:28;99122.47;;;-2.43;100.00
6500;BME280;3283;52.330;9.772;2024-01-16T06:20:53;99113.97;;;-2.39;100.00
6500;BME280;3283;52.330;9.772;2024-01-16T06:23:18;99106.34;;;-2.30;100.00
6500;BME280;3283;52.330;9.772;2024-01-16T06:25:44;99109.88;;;-2.25;100.00
6500;BME280;3283;52.330;9.772;2024-01-16T06:28:09;99116.66;;;-2.32;100.00
6500;BME280;3283;52.330;9.772;2024-01-16T06:30:34;99108.94;;;-2.30;100.00
6500;BME280;3283;52.330;9.772;2024-01-16T06:33:00;99113.13;;;-2.38;100.00
6500;BME280;3283;52.330;9.772;2024-01-16T06:35:26;99112.47;;;-2.24;100.00
6500;BME280;3283;52.330;9.772;2024-01-16T06:37:51;99117.72;;;-2.14;100.00
6500;BME280;3283;52.330;9.772;2024-01-16T06:40:16;99114.31;;;-2.13;100.00
6500;BME280;3283;52.330;9.772;2024-01-16T06:42:42;99118.72;;;-2.05;100.00
6500;BME280;3283;52.330;9.772;2024-01-16T06:45:07;99111.03;;;-2.02;100.00
6500;BME280;3283;52.330;9.772;2024-01-16T06:47:33;99112.69;;;-2.07;100.00
6500;BME280;3283;52.330;9.772;2024-01-16T06:49:58;99120.97;;;-2.28;100.00
6500;BME280;3283;52.330;9.772;2024-01-16T06:52:23;99130.59;;;-2.17;100.00
6500;BME280;3283;52.330;9.772;2024-01-16T06:54:50;99124.44;;;-2.26;100.00
6500;BME280;3283;52.330;9.772;2024-01-16T06:57:15;99121.84;;;-2.27;100.00
6500;BME280;3283;52.330;9.772;2024-01-16T06:59:41;99130.28;;;-2.39;100.00
6500;BME280;3283;52.330;9.772;2024-01-16T07:02:06;99123.63;;;-2.25;100.00
6500;BME280;3283;52.330;9.772;2024-01-16T07:04:33;99124.19;;;-2.44;100.00
6500;BME280;3283;52.330;9.772;2024-01-16T07:06:59;99127.75;;;-2.34;100.00
6500;BME280;3283;52.330;9.772;2024-01-16T07:09:25;99124.31;;;-2.33;100.00
6500;BME280;3283;52.330;9.772;2024-01-16T07:11:50;99131.91;;;-2.44;100.00
6500;BME280;3283;52.330;9.772;2024-01-16T07:14:16;99133.63;;;-2.43;100.00
6500;BME280;3283;52.330;9.772;2024-01-16T07:16:41;99131.16;;;-2.37;100.00
6500;BME280;3283;52.330;9.772;2024-01-16T07:19:08;99142.13;;;-2.50;100.00
6500;BME280;3283;52.330;9.772;2024-01-16T07:21:33;99142.03;;;-2.56;100.00
6500;BME280;3283;52.330;9.772;2024-01-16T07:23:59;99137.91;;;-2.45;100.00
6500;BME280;3283;52.330;9.772;2024-01-16T07:26:24;99147.38;;;-2.44;100.00
6500;BME280;3283;52.330;9.772;2024-01-16T07:28:50;99143.19;;;-2.36;100.00
6500;BME280;3283;52.330;9.772;2024-01-16T07:31:15;99135.28;;;-2.48;100.00
6500;BME280;3283;52.330;9.772;2024-01-16T07:33:43;99150.78;;;-2.46;100.00
6500;BME280;3283;52.330;9.772;2024-01-16T07:36:09;99144.63;;;-2.55;100.00
6500;BME280;3283;52.330;9.772;2024-01-16T07:38:35;99150.72;;;-2.48;100.00
6500;BME280;3283;52.330;9.772;2024-01-16T07:41:04;99150.63;;;-2.54;100.00
6500;BME280;3283;52.330;9.772;2024-01-16T07:43:30;99155.75;;;-2.57;100.00
6500;BME280;3283;52.330;9.772;2024-01-16T07:45:56;99142.88;;;-2.57;100.00
6500;BME280;3283;52.330;9.772;2024-01-16T07:48:21;99144.78;;;-2.45;100.00
6500;BME280;3283;52.330;9.772;2024-01-16T07:50:48;99143.06;;;-2.46;100.00
6500;BME280;3283;52.330;9.772;2024-01-16T07:53:14;99145.75;;;-2.39;100.00
6500;BME280;3283;52.330;9.772;2024-01-16T07:55:40;99155.97;;;-2.42;100.00
6500;BME280;3283;52.330;9.772;2024-01-16T07:58:05;99151.00;;;-2.30;100.00
6500;BME280;3283;52.330;9.772;2024-01-16T08:00:31;99149.44;;;-2.20;100.00
6500;BME280;3283;52.330;9.772;2024-01-16T08:02:57;99148.53;;;-2.24;100.00
6500;BME280;3283;52.330;9.772;2024-01-16T08:05:22;99155.41;;;-2.24;100.00
6500;BME280;3283;52.330;9.772;2024-01-16T08:07:51;99157.13;;;-2.23;100.00
6500;BME280;3283;52.330;9.772;2024-01-16T08:10:16;99160.47;;;-2.30;100.00
6500;BME280;3283;52.330;9.772;2024-01-16T08:12:42;99152.72;;;-2.30;100.00
6500;BME280;3283;52.330;9.772;2024-01-16T08:15:08;99160.50;;;-2.26;100.00
6500;BME280;3283;52.330;9.772;2024-01-16T08:17:33;99155.31;;;-2.30;100.00
6500;BME280;3283;52.330;9.772;2024-01-16T08:19:59;99163.06;;;-2.26;100.00
6500;BME280;3283;52.330;9.772;2024-01-16T08:22:24;99158.75;;;-2.28;100.00
6500;BME280;3283;52.330;9.772;2024-01-16T08:24:50;99159.91;;;-2.09;100.00
6500;BME280;3283;52.330;9.772;2024-01-16T08:27:16;99165.00;;;-2.12;100.00
6500;BME280;3283;52.330;9.772;2024-01-16T08:29:42;99163.06;;;-2.26;100.00
6500;BME280;3283;52.330;9.772;2024-01-16T08:32:07;99163.06;;;-2.26;100.00
6500;BME280;3283;52.330;9.772;2024-01-16T08:34:33;99167.22;;;-2.37;100.00
6500;BME280;3283;52.330;9.772;2024-01-16T08:36:59;99165.00;;;-2.12;100.00
6500;BME280;3283;52.330;9.772;2024-01-16T08:39:24;99153.13;;;-2.03;100.00
6500;BME280;3283;52.330;9.772;2024-01-16T08:41:50;99156.38;;;-2.14;100.00
6500;BME280;3283;52.330;9.772;2024-01-16T08:44:16;99167.84;;;-1.92;100.00
6500;BME280;3283;52.330;9.772;2024-01-16T08:46:41;99168.72;;;-1.92;100.00
6500;BME280;3283;52.330;9.772;2024-01-16T08:49:06;99164.41;;;-1.93;100.00
6500;BME280;3283;52.330;9.772;2024-01-16T08:51:32;99153.31;;;-1.89;100.00
6500;BME280;3283;52.330;9.772;2024-01-16T08:53:57;99158.75;;;-1.64;100.00
6500;BME280;3283;52.330;9.772;2024-01-16T08:56:22;99155.25;;;-1.71;100.00
6500;BME280;3283;52.330;9.772;2024-01-16T08:58:48;99155.31;;;-1.65;100.00
6500;BME280;3283;52.330;9.772;2024-01-16T09:01:14;99150.22;;;-1.60;100.00
6500;BME280;3283;52.330;9.772;2024-01-16T09:03:40;99160.56;;;-1.59;100.00
6500;BME280;3283;52.330;9.772;2024-01-16T09:06:06;99156.06;;;-1.74;100.00
6500;BME280;3283;52.330;9.772;2024-01-16T09:08:32;99160.97;;;-1.95;100.00
6500;BME280;3283;52.330;9.772;2024-01-16T09:10:57;99154.75;;;-2.09;100.00
6500;BME280;3283;52.330;9.772;2024-01-16T09:13:23;99149.13;;;-1.78;100.00
6500;BME280;3283;52.330;9.772;2024-01-16T09:15:49;99155.41;;;-1.57;100.00
6500;BME280;3283;52.330;9.772;2024-01-16T09:18:15;99159.69;;;-1.61;100.00
6500;BME280;3283;52.330;9.772;2024-01-16T09:20:42;99157.13;;;-1.59;100.00
6500;BME280;3283;52.330;9.772;2024-01-16T09:23:08;99163.22;;;-1.50;100.00
6500;BME280;3283;52.330;9.772;2024-01-16T09:25:34;99162.22;;;-1.64;100.00
6500;BME280;3283;52.330;9.772;2024-01-16T09:28:00;99163.84;;;-1.71;100.00
6500;BME280;3283;52.330;9.772;2024-01-16T09:30:25;99160.22;;;-1.86;100.00
6500;BME280;3283;52.330;9.772;2024-01-16T09:32:51;99154.44;;;-1.69;100.00
6500;BME280;3283;52.330;9.772;2024-01-16T09:35:16;99163.03;;;-1.68;100.00
6500;BME280;3283;52.330;9.772;2024-01-16T09:37:41;99161.44;;;-1.57;100.00
6500;BME280;3283;52.330;9.772;2024-01-16T09:40:07;99153.56;;;-1.69;100.00
6500;BME280;3283;52.330;9.772;2024-01-16T09:42:33;99156.00;;;-1.80;100.00
6500;BME280;3283;52.330;9.772;2024-01-16T09:45:00;99162.19;;;-1.66;100.00
6500;BME280;3283;52.330;9.772;2024-01-16T09:47:30;99156.38;;;-1.49;100.00
6500;BME280;3283;52.330;9.772;2024-01-16T09:49:59;99159.13;;;-1.34;100.00
6500;BME280;3283;52.330;9.772;2024-01-16T09:52:25;99166.75;;;-1.43;100.00
6500;BME280;3283;52.330;9.772;2024-01-16T09:54:50;99157.38;;;-1.35;100.00
6500;BME280;3283;52.330;9.772;2024-01-16T09:57:18;99167.81;;;-1.26;100.00
6500;BME280;3283;52.330;9.772;2024-01-16T09:59:45;99163.47;;;-1.31;100.00
6500;BME280;3283;52.330;9.772;2024-01-16T10:02:11;99161.69;;;-1.34;100.00
6500;BME280;3283;52.330;9.772;2024-01-16T10:04:38;99161.06;;;-1.13;100.00
6500;BME280;3283;52.330;9.772;2024-01-16T10:07:04;99172.22;;;-1.19;100.00
6500;BME280;3283;52.330;9.772;2024-01-16T10:09:29;99168.91;;;-1.05;100.00
6500;BME280;3283;52.330;9.772;2024-01-16T10:11:55;99162.97;;;-0.92;100.00
6500;BME280;3283;52.330;9.772;2024-01-16T10:14:21;99162.25;;;-0.82;100.00
6500;BME280;3283;52.330;9.772;2024-01-16T10:17:05;99170.91;;;-0.74;100.00
6500;BME280;3283;52.330;9.772;2024-01-16T10:19:32;99159.66;;;-0.79;100.00
6500;BME280;3283;52.330;9.772;2024-01-16T10:22:05;99154.56;;;-0.76;100.00
6500;BME280;3283;52.330;9.772;2024-01-16T10:24:31;99168.47;;;-0.59;100.00
6500;BME280;3283;52.330;9.772;2024-01-16T10:26:59;99152.84;;;-0.71;100.00
6500;BME280;3283;52.330;9.772;2024-01-16T10:29:29;99163.22;;;-0.68;100.00
6500;BME280;3283;52.330;9.772;2024-01-16T10:31:57;99168.50;;;-0.52;100.00
6500;BME280;3283;52.330;9.772;2024-01-16T10:34:23;99166.91;;;-0.38;100.00
6500;BME280;3283;52.330;9.772;2024-01-16T10:36:50;99180.53;;;-0.58;100.00
6500;BME280;3283;52.330;9.772;2024-01-16T10:39:16;99175.41;;;-0.54;100.00
6500;BME280;3283;52.330;9.772;2024-01-16T10:41:41;99174.75;;;-0.26;100.00
6500;BME280;3283;52.330;9.772;2024-01-16T10:44:08;99169.59;;;-0.28;100.00
6500;BME280;3283;52.330;9.772;2024-01-16T10:46:34;99169.53;;;-0.29;100.00
6500;BME280;3283;52.330;9.772;2024-01-16T10:49:00;99175.53;;;-0.36;100.00
6500;BME280;3283;52.330;9.772;2024-01-16T10:51:27;99171.25;;;-0.34;100.00
6500;BME280;3283;52.330;9.772;2024-01-16T10:56:27;99182.59;;;-0.11;100.00
6500;BME280;3283;52.330;9.772;2024-01-16T10:59:03;99174.03;;;-0.07;100.00
6500;BME280;3283;52.330;9.772;2024-01-16T11:01:32;99180.03;;;-0.08;100.00
6500;BME280;3283;52.330;9.772;2024-01-16T11:03:58;99175.75;;;-0.03;100.00
6500;BME280;3283;52.330;9.772;2024-01-16T11:06:27;99177.66;;;0.24;100.00
6500;BME280;3283;52.330;9.772;2024-01-16T11:08:54;99175.91;;;0.22;100.00
6500;BME280;3283;52.330;9.772;2024-01-16T11:11:22;99181.09;;;0.22;100.00
6500;BME280;3283;52.330;9.772;2024-01-16T11:13:48;99176.78;;;0.24;100.00
6500;BME280;3283;52.330;9.772;2024-01-16T11:16:15;99181.13;;;0.31;100.00
6500;BME280;3283;52.330;9.772;2024-01-16T11:18:41;99186.31;;;0.31;100.00
6500;BME280;3283;52.330;9.772;2024-01-16T11:21:09;99178.53;;;0.31;100.00
6500;BME280;3283;52.330;9.772;2024-01-16T11:23:36;99186.22;;;0.16;100.00
6500;BME280;3283;52.330;9.772;2024-01-16T11:28:49;99188.50;;;-0.30;100.00
6500;BME280;3283;52.330;9.772;2024-01-16T11:31:31;99194.84;;;0.18;100.00
6500;BME280;3283;52.330;9.772;2024-01-16T11:33:57;99186.19;;;0.11;100.00
6500;BME280;3283;52.330;9.772;2024-01-16T11:39:20;99183.66;;;0.16;100.00
6500;BME280;3283;52.330;9.772;2024-01-16T11:41:53;99182.88;;;0.38;100.00
6500;BME280;3283;52.330;9.772;2024-01-16T11:44:42;99176.03;;;0.55;100.00
6500;BME280;3283;52.330;9.772;2024-01-16T11:47:08;99194.00;;;0.17;100.00
6500;BME280;3283;52.330;9.772;2024-01-16T11:49:37;99181.78;;;-0.04;100.00
6500;BME280;3283;52.330;9.772;2024-01-16T11:52:03;99180.72;;;-0.35;100.00
6500;BME280;3283;52.330;9.772;2024-01-16T11:54:29;99188.44;;;-0.36;100.00
6500;BME280;3283;52.330;9.772;2024-01-16T12:00:05;99197.59;;;-0.76;100.00
6500;BME280;3283;52.330;9.772;2024-01-16T12:02:53;99187.41;;;-0.57;100.00
6500;BME280;3283;52.330;9.772;2024-01-16T12:05:21;99191.94;;;-0.34;100.00
6500;BME280;3283;52.330;9.772;2024-01-16T12:10:19;99183.09;;;-0.59;100.00
6500;BME280;3283;52.330;9.772;2024-01-16T12:12:45;99172.88;;;-0.44;100.00
6500;BME280;3283;52.330;9.772;2024-01-16T12:15:29;99175.41;;;-0.51;100.00
6500;BME280;3283;52.330;9.772;2024-01-16T12:18:01;99179.63;;;-0.63;100.00
6500;BME280;3283;52.330;9.772;2024-01-16T12:20:28;99172.03;;;-0.44;100.00
6500;BME280;3283;52.330;9.772;2024-01-16T12:23:01;99174.59;;;-0.46;100.00
6500;BME280;3283;52.330;9.772;2024-01-16T12:25:28;99179.03;;;-0.30;100.00
6500;BME280;3283;52.330;9.772;2024-01-16T12:28:02;99171.91;;;-0.60;100.00
6500;BME280;3283;52.330;9.772;2024-01-16T12:30:32;99172.81;;;-0.53;100.00
6500;BME280;3283;52.330;9.772;2024-01-16T12:33:08;99177.13;;;-0.53;100.00
6500;BME280;3283;52.330;9.772;2024-01-16T12:35:37;99175.22;;;-0.71;100.00
6500;BME280;3283;52.330;9.772;2024-01-16T12:38:08;99170.00;;;-0.79;100.00
6500;BME280;3283;52.330;9.772;2024-01-16T12:40:39;99164.81;;;-0.80;100.00
6500;BME280;3283;52.330;9.772;2024-01-16T12:43:08;99172.88;;;-0.47;100.00
6500;BME280;3283;52.330;9.772;2024-01-16T12:45:37;99165.88;;;-0.60;100.00
6500;BME280;3283;52.330;9.772;2024-01-16T12:48:03;99160.88;;;-0.36;100.00
6500;BME280;3283;52.330;9.772;2024-01-16T12:50:30;99166.78;;;-0.55;100.00
6500;BME280;3283;52.330;9.772;2024-01-16T12:55:28;99158.59;;;-1.05;100.00
6500;BME280;3283;52.330;9.772;2024-01-16T13:00:37;99152.63;;;-0.98;100.00
6500;BME280;3283;52.330;9.772;2024-01-16T13:03:04;99150.19;;;-0.80;100.00
6500;BME280;3283;52.330;9.772;2024-01-16T13:05:30;99144.03;;;-0.96;100.00
6500;BME280;3283;52.330;9.772;2024-01-16T13:08:02;99147.63;;;-0.80;100.00
6500;BME280;3283;52.330;9.772;2024-01-16T13:10:31;99147.41;;;-1.04;100.00
6500;BME280;3283;52.330;9.772;2024-01-16T13:13:16;99140.78;;;-0.72;100.00
6500;BME280;3283;52.330;9.772;2024-01-16T13:15:45;99137.97;;;-0.99;100.00
6500;BME280;3283;52.330;9.772;2024-01-16T13:18:18;99132.88;;;-0.92;100.00
6500;BME280;3283;52.330;9.772;2024-01-16T13:20:44;99129.34;;;-1.04;100.00
6500;BME280;3283;52.330;9.772;2024-01-16T13:23:12;99134.63;;;-0.86;100.00
6500;BME280;3283;52.330;9.772;2024-01-16T13:25:39;99139.00;;;-0.79;100.00
6500;BME280;3283;52.330;9.772;2024-01-16T13:28:04;99137.34;;;-0.74;100.00